createdAt,value
2022-08-28T00:02:17.406Z,19.44
2022-08-28T00:04:46.393Z,19.43
2022-08-28T00:07:18.397Z,19.45
2022-08-28T00:09:47.501Z,19.45
2022-08-28T00:12:21.124Z,19.46
2022-08-28T00:14:50.760Z,19.47
2022-08-28T00:17:20.202Z,19.45
2022-08-28T00:19:50.593Z,19.48
2022-08-28T00:22:19.650Z,19.49
2022-08-28T00:24:48.511Z,19.46
2022-08-28T00:27:36.505Z,19.44
2022-08-28T00:30:07.259Z,19.42
2022-08-28T00:32:38.475Z,19.42
2022-08-28T00:35:07.696Z,19.42
2022-08-28T00:37:42.755Z,19.40
2022-08-28T00:40:30.499Z,19.37
2022-08-28T00:43:06.515Z,19.35
2022-08-28T00:45:40.074Z,19.34
2022-08-28T00:48:11.578Z,19.33
2022-08-28T00:51:01.417Z,19.29
2022-08-28T00:53:32.996Z,19.22
2022-08-28T00:56:10.354Z,19.17
2022-08-28T00:58:46.784Z,19.10
2022-08-28T01:01:16.758Z,19.06
2022-08-28T01:03:46.802Z,19.06
2022-08-28T01:06:20.163Z,19.03
2022-08-28T01:08:50.756Z,18.97
2022-08-28T01:11:21.643Z,18.92
2022-08-28T01:13:54.429Z,18.86
2022-08-28T01:16:32.960Z,18.81
2022-08-28T01:19:13.722Z,18.76
2022-08-28T01:21:51.015Z,18.73
2022-08-28T01:24:21.090Z,18.70
2022-08-28T01:26:51.541Z,18.64
2022-08-28T01:29:22.025Z,18.56
2022-08-28T01:31:59.161Z,18.48
2022-08-28T01:34:32.084Z,18.43
2022-08-28T01:37:04.249Z,18.39
2022-08-28T01:39:38.567Z,18.39
2022-08-28T01:42:09.940Z,18.39
2022-08-28T01:44:40.870Z,18.36
2022-08-28T01:47:12.031Z,18.29
2022-08-28T01:49:43.770Z,18.22
2022-08-28T01:52:12.653Z,18.23
2022-08-28T01:54:42.023Z,18.26
2022-08-28T01:57:11.586Z,18.22
2022-08-28T01:59:47.079Z,18.09
2022-08-28T02:02:18.081Z,17.91
2022-08-28T02:04:50.443Z,17.79
2022-08-28T02:07:19.886Z,17.74
2022-08-28T02:09:56.934Z,17.76
2022-08-28T02:12:30.209Z,17.74
2022-08-28T02:15:02.476Z,17.68
2022-08-28T02:17:33.593Z,17.57
2022-08-28T02:20:07.446Z,17.44
2022-08-28T02:22:37.330Z,17.36
2022-08-28T02:25:07.401Z,17.25
2022-08-28T02:27:36.584Z,17.19
2022-08-28T02:30:12.859Z,17.11
2022-08-28T02:32:41.942Z,17.06
2022-08-28T02:35:19.062Z,17.06
2022-08-28T02:37:49.729Z,17.04
2022-08-28T02:40:22.444Z,17.06
2022-08-28T02:42:54.121Z,17.08
2022-08-28T02:45:29.360Z,17.12
2022-08-28T02:48:01.624Z,17.16
2022-08-28T02:50:30.856Z,17.21
2022-08-28T02:53:05.093Z,17.23
2022-08-28T02:55:40.729Z,17.21
2022-08-28T02:58:09.724Z,17.17
2022-08-28T03:00:38.810Z,17.15
2022-08-28T03:03:08.566Z,17.15
2022-08-28T03:05:43.178Z,17.14
2022-08-28T03:08:12.649Z,17.18
2022-08-28T03:10:45.745Z,17.16
2022-08-28T03:13:26.495Z,17.13
2022-08-28T03:15:58.862Z,17.07
2022-08-28T03:18:30.240Z,17.06
2022-08-28T03:21:00.798Z,17.01
2022-08-28T03:23:29.973Z,16.94
2022-08-28T03:26:12.325Z,16.90
2022-08-28T03:28:46.567Z,16.84
2022-08-28T03:31:22.950Z,16.77
2022-08-28T03:33:54.060Z,16.75
2022-08-28T03:36:28.381Z,16.72
2022-08-28T03:38:59.444Z,16.69
2022-08-28T03:41:30.604Z,16.65
2022-08-28T03:44:02.206Z,16.64
2022-08-28T03:46:35.192Z,16.63
2022-08-28T03:49:08.726Z,16.61
2022-08-28T03:51:39.020Z,16.60
2022-08-28T03:54:07.866Z,16.62
2022-08-28T03:56:36.422Z,16.71
2022-08-28T03:59:12.006Z,16.77
2022-08-28T04:01:42.068Z,16.88
2022-08-28T04:04:11.696Z,16.96
2022-08-28T04:06:44.158Z,17.03
2022-08-28T04:09:20.801Z,17.13
2022-08-28T04:11:53.977Z,17.25
2022-08-28T04:14:23.817Z,17.42
2022-08-28T04:16:57.556Z,17.62
2022-08-28T04:19:29.897Z,17.84
2022-08-28T04:22:01.206Z,18.13
2022-08-28T04:24:29.879Z,18.42
2022-08-28T04:27:00.126Z,18.69
2022-08-28T04:29:29.890Z,18.94
2022-08-28T04:32:02.939Z,19.08
2022-08-28T04:34:45.228Z,19.19
2022-08-28T04:37:18.773Z,19.30
2022-08-28T04:39:50.789Z,19.43
2022-08-28T04:42:21.888Z,19.62
2022-08-28T04:45:01.632Z,19.85
2022-08-28T04:47:35.313Z,20.13
2022-08-28T04:50:08.725Z,20.43
2022-08-28T04:52:40.239Z,20.67
2022-08-28T04:55:12.304Z,20.86
2022-08-28T04:57:41.626Z,21.08
2022-08-28T05:00:12.448Z,21.36
2022-08-28T05:02:45.556Z,21.64
2022-08-28T17:27:55.160Z,25.64
2022-08-28T18:26:14.418Z,23.68
2022-08-28T18:28:47.748Z,23.67
2022-08-28T18:31:20.357Z,23.66
2022-08-28T18:33:56.467Z,23.63
2022-08-28T18:36:45.077Z,23.52
2022-08-28T18:39:22.622Z,23.46
2022-08-28T18:42:03.373Z,23.44
2022-08-28T18:44:41.705Z,23.42
2022-08-28T18:47:10.886Z,23.38
2022-08-28T18:49:43.710Z,23.33
2022-08-28T18:52:13.191Z,23.27
2022-08-28T18:54:48.467Z,23.20
2022-08-28T18:57:19.180Z,23.14
2022-08-28T18:59:53.236Z,23.09
2022-08-28T19:02:24.045Z,23.03
2022-08-28T19:04:56.595Z,23.01
2022-08-28T19:07:25.992Z,22.96
2022-08-28T19:09:58.177Z,22.92
2022-08-28T19:12:29.662Z,22.88
2022-08-28T19:15:11.277Z,22.83
2022-08-28T19:17:45.264Z,22.80
2022-08-28T19:20:20.860Z,22.78
2022-08-28T19:22:50.947Z,22.76
2022-08-28T19:25:28.663Z,22.74
2022-08-28T19:28:05.509Z,22.70
2022-08-28T19:30:36.764Z,22.67
2022-08-28T19:33:12.920Z,22.64
2022-08-28T19:35:45.847Z,22.61
2022-08-28T19:38:15.325Z,22.59
2022-08-28T19:40:47.029Z,22.59
2022-08-28T19:43:16.803Z,22.55
2022-08-28T19:45:50.570Z,22.55
2022-08-28T19:48:23.051Z,22.52
2022-08-28T19:51:17.267Z,22.46
2022-08-28T19:53:56.712Z,22.41
2022-08-28T19:56:29.987Z,22.34
2022-08-28T19:59:03.610Z,22.33
2022-08-28T20:01:43.364Z,22.31
2022-08-28T20:04:17.483Z,22.28
2022-08-28T20:06:55.166Z,22.25
2022-08-28T20:09:25.565Z,22.21
2022-08-28T20:12:04.451Z,22.20
2022-08-28T20:14:42.681Z,22.16
2022-08-28T20:17:17.451Z,22.13
2022-08-28T20:19:50.361Z,22.12
2022-08-28T20:22:23.393Z,22.11
2022-08-28T20:24:57.905Z,22.08
2022-08-28T20:27:27.537Z,22.06
2022-08-28T20:29:59.123Z,22.00
2022-08-28T20:32:44.427Z,21.91
2022-08-28T20:35:19.213Z,21.86
2022-08-28T20:37:54.421Z,21.84
2022-08-28T20:40:25.411Z,21.81
2022-08-28T20:43:05.582Z,21.78
2022-08-28T20:45:38.515Z,21.77
2022-08-28T20:48:13.736Z,21.78
2022-08-28T20:50:43.172Z,21.78
2022-08-28T20:53:27.261Z,21.79
2022-08-28T20:56:11.171Z,21.75
2022-08-28T20:58:44.297Z,21.73
2022-08-28T21:01:18.386Z,21.71
2022-08-28T21:03:47.985Z,21.69
2022-08-28T21:06:17.759Z,21.67
2022-08-28T21:08:55.897Z,21.64
2022-08-28T21:11:24.771Z,21.62
2022-08-28T21:13:56.054Z,21.59
2022-08-28T21:16:27.817Z,21.57
2022-08-28T21:19:15.931Z,21.52
2022-08-28T21:21:49.793Z,21.49
2022-08-28T21:24:21.235Z,21.47
2022-08-28T21:26:59.343Z,21.45
2022-08-28T21:29:31.462Z,21.46
2022-08-28T21:32:00.553Z,21.43
2022-08-28T21:34:30.427Z,21.43
2022-08-28T21:37:00.148Z,21.41
2022-08-28T21:39:31.363Z,21.39
2022-08-28T21:42:04.335Z,21.37
2022-08-28T21:44:40.392Z,21.33
2022-08-28T21:47:19.985Z,21.30
2022-08-28T21:49:50.302Z,21.29
2022-08-28T21:52:25.844Z,21.26
2022-08-28T21:55:07.465Z,21.24
2022-08-28T21:57:42.450Z,21.22
2022-08-28T22:00:28.527Z,21.23
2022-08-28T22:02:57.575Z,21.20
2022-08-28T22:05:28.630Z,21.18
2022-08-28T22:08:03.326Z,21.13
2022-08-28T22:10:38.624Z,21.11
2022-08-28T22:13:11.959Z,21.09
2022-08-28T22:15:45.037Z,21.07
2022-08-28T22:18:19.034Z,21.09
2022-08-28T22:21:09.172Z,21.10
2022-08-28T22:23:40.164Z,21.10
2022-08-28T22:26:17.628Z,21.10
2022-08-28T22:28:53.241Z,21.09
2022-08-28T22:31:26.627Z,21.06
2022-08-28T22:33:58.032Z,21.04
2022-08-28T22:36:29.220Z,20.98
2022-08-28T22:39:01.306Z,20.82
2022-08-28T22:41:31.722Z,20.71
2022-08-28T22:44:07.025Z,20.70
2022-08-28T22:46:41.880Z,20.69
2022-08-28T22:49:11.217Z,20.68
2022-08-28T22:51:45.949Z,20.65
2022-08-28T22:54:19.089Z,20.64
2022-08-28T22:56:54.069Z,20.57
2022-08-28T22:59:28.130Z,20.56
2022-08-28T23:02:04.476Z,20.52
2022-08-28T23:04:44.069Z,20.49
2022-08-28T23:07:18.960Z,20.38
2022-08-28T23:09:50.446Z,20.31
2022-08-28T23:12:23.508Z,20.28
2022-08-28T23:14:53.453Z,20.26
2022-08-28T23:17:24.046Z,20.20
2022-08-28T23:19:57.529Z,20.11
2022-08-28T23:22:31.645Z,20.08
2022-08-28T23:25:08.087Z,20.02
2022-08-28T23:27:39.627Z,19.90
2022-08-28T23:30:12.282Z,19.82
2022-08-28T23:32:47.856Z,19.73
2022-08-28T23:35:17.788Z,19.67
2022-08-28T23:37:52.841Z,19.59
2022-08-28T23:40:25.776Z,19.53
2022-08-28T23:42:58.522Z,19.49
2022-08-28T23:45:29.401Z,19.47
2022-08-28T23:48:01.263Z,19.44
2022-08-28T23:50:32.960Z,19.36
2022-08-28T23:53:07.613Z,19.32
2022-08-28T23:55:41.892Z,19.27
2022-08-28T23:58:12.834Z,19.22
